createdAt,value
2022-11-24T00:00:37.832Z,11.92
2022-11-24T00:01:39.340Z,11.87
2022-11-24T00:02:40.987Z,11.89
2022-11-24T00:03:46.806Z,11.92
2022-11-24T00:04:48.322Z,11.96
2022-11-24T00:05:49.859Z,11.98
2022-11-24T00:06:53.415Z,11.99
2022-11-24T00:07:54.984Z,11.99
2022-11-24T00:08:57.123Z,11.98
2022-11-24T00:09:58.648Z,11.96
2022-11-24T00:11:14.665Z,11.96
2022-11-24T00:12:16.179Z,11.98
2022-11-24T00:13:17.693Z,11.91
2022-11-24T00:14:19.915Z,11.91
2022-11-24T00:15:21.600Z,11.94
2022-11-24T00:16:26.443Z,11.98
2022-11-24T00:17:29.419Z,12.00
2022-11-24T00:18:31.295Z,12.01
2022-11-24T00:19:32.800Z,12.02
2022-11-24T00:20:34.388Z,12.06
2022-11-24T00:21:37.123Z,12.10
2022-11-24T00:22:38.724Z,12.08
2022-11-24T00:23:40.640Z,12.06
2022-11-24T00:24:42.132Z,11.95
2022-11-24T00:25:43.657Z,11.87
2022-11-24T00:26:45.232Z,11.89
2022-11-24T00:27:46.740Z,11.89
2022-11-24T00:28:50.171Z,11.89
2022-11-24T00:29:51.690Z,11.95
2022-11-24T00:30:53.247Z,12.04
2022-11-24T00:31:56.738Z,12.07
2022-11-24T00:32:58.262Z,12.08
2022-11-24T00:34:02.609Z,11.92
2022-11-24T00:35:04.500Z,11.76
2022-11-24T00:36:06.251Z,11.75
2022-11-24T00:37:07.818Z,11.78
2022-11-24T00:38:09.328Z,11.80
2022-11-24T00:39:15.774Z,11.86
2022-11-24T00:40:17.436Z,11.91
2022-11-24T00:41:18.945Z,11.98
2022-11-24T00:42:20.467Z,12.02
2022-11-24T00:43:22.028Z,12.09
2022-11-24T00:44:23.639Z,12.11
2022-11-24T00:45:25.170Z,12.14
2022-11-24T00:46:27.974Z,12.15
2022-11-24T00:47:32.821Z,12.13
2022-11-24T00:48:34.784Z,12.08
2022-11-24T00:49:36.384Z,11.96
2022-11-24T00:50:38.026Z,11.59
2022-11-24T00:51:39.759Z,11.43
2022-11-24T00:52:41.303Z,11.35
2022-11-24T00:53:43.600Z,11.15
2022-11-24T00:54:45.129Z,11.07
2022-11-24T00:55:50.066Z,11.09
2022-11-24T00:56:51.609Z,11.15
2022-11-24T00:57:53.145Z,11.16
2022-11-24T00:58:55.131Z,11.20
2022-11-24T00:59:56.635Z,11.26
2022-11-24T01:01:16.539Z,11.25
2022-11-24T01:02:18.183Z,11.25
2022-11-24T01:03:20.916Z,11.28
2022-11-24T01:04:22.420Z,11.31
2022-11-24T01:05:23.931Z,11.29
2022-11-24T01:06:26.333Z,11.31
2022-11-24T01:07:27.877Z,11.26
2022-11-24T01:08:29.489Z,11.17
2022-11-24T01:09:30.998Z,10.99
2022-11-24T01:10:33.394Z,11.01
2022-11-24T01:11:54.605Z,10.95
2022-11-24T01:12:56.171Z,10.97
2022-11-24T01:13:59.328Z,10.91
2022-11-24T01:15:00.877Z,10.90
2022-11-24T01:16:02.524Z,10.90
2022-11-24T01:17:04.363Z,10.93
2022-11-24T01:18:06.281Z,10.97
2022-11-24T01:19:07.932Z,10.96
2022-11-24T01:20:10.018Z,11.02
2022-11-24T01:21:11.874Z,11.09
2022-11-24T01:22:13.780Z,11.14
2022-11-24T01:23:15.282Z,11.15
2022-11-24T01:24:17.077Z,11.19
2022-11-24T01:25:18.610Z,11.24
2022-11-24T01:26:22.290Z,11.29
2022-11-24T01:27:23.836Z,11.28
2022-11-24T01:28:25.374Z,11.31
2022-11-24T01:29:26.968Z,11.35
2022-11-24T01:30:28.478Z,11.34
2022-11-24T01:31:30.175Z,11.30
2022-11-24T01:32:33.245Z,11.31
2022-11-24T01:33:35.586Z,11.38
2022-11-24T01:34:37.112Z,11.43
2022-11-24T01:35:38.660Z,11.45
2022-11-24T01:36:40.239Z,11.42
2022-11-24T01:37:41.757Z,11.40
2022-11-24T01:38:43.312Z,11.42
2022-11-24T01:39:44.883Z,11.45
2022-11-24T01:40:46.823Z,11.49
2022-11-24T01:41:48.343Z,11.52
2022-11-24T01:42:51.654Z,11.53
2022-11-24T01:43:55.171Z,11.55
2022-11-24T01:45:31.041Z,11.57
2022-11-24T01:46:43.704Z,11.62
2022-11-24T01:47:45.265Z,11.64
2022-11-24T01:49:08.640Z,11.68
2022-11-24T01:50:16.243Z,11.63
2022-11-24T01:51:23.136Z,11.57
2022-11-24T01:52:33.066Z,11.48
2022-11-24T01:53:35.507Z,11.37
2022-11-24T01:54:40.830Z,11.24
2022-11-24T01:55:42.506Z,11.14
2022-11-24T01:56:47.946Z,11.05
2022-11-24T01:58:07.523Z,10.87
2022-11-24T01:59:12.449Z,10.79
2022-11-24T02:00:14.860Z,10.76
2022-11-24T02:01:16.506Z,10.77
2022-11-24T02:02:19.439Z,10.71
2022-11-24T02:03:26.361Z,10.64
2022-11-24T02:04:33.230Z,10.64
2022-11-24T02:05:51.190Z,10.69
2022-11-24T02:06:55.040Z,10.62
2022-11-24T02:08:00.384Z,10.54
2022-11-24T02:09:13.470Z,10.55
2022-11-24T02:10:16.321Z,10.48
2022-11-24T02:11:21.085Z,10.44
2022-11-24T02:12:24.687Z,10.34
2022-11-24T02:13:26.443Z,10.22
2022-11-24T02:14:28.601Z,10.17
2022-11-24T02:15:30.857Z,10.23
2022-11-24T02:16:35.841Z,10.28
2022-11-24T02:17:37.787Z,10.38
2022-11-24T02:18:40.120Z,10.44
2022-11-24T02:19:47.495Z,10.55
2022-11-24T02:20:49.146Z,10.62
2022-11-24T02:21:50.920Z,10.64
2022-11-24T02:22:55.537Z,10.62
2022-11-24T02:24:26.587Z,10.56
2022-11-24T02:25:46.735Z,10.47
2022-11-24T02:26:49.732Z,10.43
2022-11-24T02:27:54.109Z,10.43
2022-11-24T02:28:56.352Z,10.44
2022-11-24T02:29:58.580Z,10.47
2022-11-24T02:31:01.803Z,10.50
2022-11-24T02:32:06.778Z,10.49
2022-11-24T02:33:09.965Z,10.46
2022-11-24T02:34:11.456Z,10.41
2022-11-24T02:35:13.449Z,10.36
2022-11-24T02:36:14.971Z,10.36
2022-11-24T02:37:16.541Z,10.27
2022-11-24T02:38:18.173Z,10.27
2022-11-24T02:39:19.907Z,10.27
2022-11-24T02:40:26.307Z,10.27
2022-11-24T02:41:29.150Z,10.20
2022-11-24T02:42:36.263Z,10.20
2022-11-24T02:43:49.700Z,10.24
2022-11-24T02:44:56.952Z,10.27
2022-11-24T02:45:58.547Z,10.31
2022-11-24T02:47:09.218Z,10.35
2022-11-24T02:48:10.748Z,10.40
2022-11-24T02:49:12.269Z,10.45
2022-11-24T02:50:13.760Z,10.48
2022-11-24T02:51:15.510Z,10.51
2022-11-24T02:52:17.027Z,10.55
2022-11-24T02:53:18.591Z,10.56
2022-11-24T02:54:20.100Z,10.59
2022-11-24T02:55:21.689Z,10.60
2022-11-24T02:56:23.208Z,10.59
2022-11-24T02:57:24.721Z,10.59
2022-11-24T02:58:26.294Z,10.55
2022-11-24T02:59:27.859Z,10.49
2022-11-24T03:00:29.418Z,10.48
2022-11-24T03:01:31.028Z,10.49
2022-11-24T03:02:32.650Z,10.53
2022-11-24T03:03:34.331Z,10.57
2022-11-24T03:04:36.259Z,10.60
2022-11-24T03:05:38.163Z,10.61
2022-11-24T03:06:39.771Z,10.65
2022-11-24T03:07:41.395Z,10.65
2022-11-24T03:08:42.988Z,10.59
2022-11-24T03:09:44.514Z,10.56
2022-11-24T03:10:46.293Z,10.57
2022-11-24T03:11:47.884Z,10.58
2022-11-24T03:12:49.391Z,10.54
2022-11-24T03:13:51.003Z,10.42
2022-11-24T03:14:52.524Z,10.08
2022-11-24T03:15:54.128Z,9.81
2022-11-24T03:16:55.695Z,9.64
2022-11-24T03:17:57.399Z,9.55
2022-11-24T03:18:59.276Z,9.52
2022-11-24T03:20:04.907Z,9.60
2022-11-24T03:21:07.225Z,9.65
2022-11-24T03:22:08.840Z,9.66
2022-11-24T03:23:10.779Z,9.69
2022-11-24T03:24:12.294Z,9.69
2022-11-24T03:25:13.914Z,9.73
2022-11-24T03:26:18.119Z,9.83
2022-11-24T03:27:19.792Z,9.89
2022-11-24T03:28:21.315Z,9.97
2022-11-24T03:29:23.038Z,10.09
2022-11-24T03:30:24.683Z,10.16
2022-11-24T03:31:26.238Z,10.22
2022-11-24T03:32:27.849Z,10.26
2022-11-24T03:33:29.568Z,10.29
2022-11-24T03:34:31.281Z,10.29
2022-11-24T03:35:32.998Z,10.29
2022-11-24T03:36:34.574Z,10.32
2022-11-24T03:37:36.124Z,10.32
2022-11-24T03:38:37.806Z,10.34
2022-11-24T03:39:39.370Z,10.32
2022-11-24T03:40:41.279Z,10.34
2022-11-24T03:41:42.864Z,10.32
2022-11-24T03:42:44.425Z,10.26
2022-11-24T03:43:45.974Z,10.19
2022-11-24T03:44:47.482Z,10.13
2022-11-24T03:45:50.111Z,10.17
2022-11-24T03:46:52.109Z,10.20
2022-11-24T03:47:53.637Z,10.23
2022-11-24T03:48:55.152Z,10.26
2022-11-24T03:49:56.643Z,10.29
2022-11-24T03:51:00.544Z,10.32
2022-11-24T03:52:07.656Z,10.36
2022-11-24T03:53:10.006Z,10.38
2022-11-24T03:54:11.873Z,10.40
2022-11-24T03:55:13.474Z,10.31
2022-11-24T03:56:15.106Z,10.19
2022-11-24T03:57:16.650Z,10.14
2022-11-24T03:58:19.413Z,10.10
2022-11-24T03:59:21.089Z,10.06
2022-11-24T04:00:22.838Z,10.06
2022-11-24T04:01:24.511Z,10.06
2022-11-24T04:02:26.064Z,10.05
2022-11-24T04:03:27.912Z,10.05
2022-11-24T04:04:29.445Z,10.07
2022-11-24T04:05:31.158Z,10.09
2022-11-24T04:06:32.689Z,10.08
2022-11-24T04:07:34.340Z,10.13
2022-11-24T04:08:36.490Z,10.12
2022-11-24T04:09:38.349Z,10.14
2022-11-24T04:10:40.350Z,10.14
2022-11-24T04:12:00.228Z,10.11
2022-11-24T04:13:01.862Z,9.88
2022-11-24T04:14:04.352Z,9.74
2022-11-24T04:15:07.805Z,9.66
2022-11-24T04:16:09.456Z,9.70
2022-11-24T04:17:11.218Z,9.76
2022-11-24T04:18:14.402Z,9.84
2022-11-24T04:19:16.533Z,9.85
2022-11-24T04:20:18.402Z,9.90
2022-11-24T04:21:21.875Z,9.92
2022-11-24T04:22:24.654Z,9.94
2022-11-24T04:23:28.257Z,9.93
2022-11-24T04:24:30.020Z,9.91
2022-11-24T04:25:32.306Z,9.91
2022-11-24T04:26:34.404Z,9.91
2022-11-24T04:27:37.319Z,9.72
2022-11-24T04:28:39.217Z,9.74
2022-11-24T04:29:40.967Z,9.81
2022-11-24T04:30:45.166Z,9.83
2022-11-24T04:31:47.782Z,9.90
2022-11-24T04:32:49.590Z,9.86
2022-11-24T04:33:51.105Z,9.84
2022-11-24T04:34:53.200Z,9.82
2022-11-24T04:35:54.723Z,9.81
2022-11-24T04:36:56.384Z,9.79
2022-11-24T04:38:01.784Z,9.78
2022-11-24T04:39:19.669Z,9.75
2022-11-24T04:40:24.937Z,9.67
2022-11-24T04:41:26.479Z,9.68
2022-11-24T04:42:28.113Z,9.62
2022-11-24T04:43:30.306Z,9.58
2022-11-24T04:44:32.326Z,9.58
2022-11-24T04:45:34.206Z,9.53
2022-11-24T04:46:35.850Z,9.34
2022-11-24T04:47:38.301Z,9.19
2022-11-24T04:48:39.860Z,9.00
2022-11-24T04:49:41.387Z,8.85
2022-11-24T04:50:42.968Z,8.76
2022-11-24T04:51:45.158Z,8.63
2022-11-24T04:52:47.326Z,8.54
2022-11-24T04:53:49.517Z,8.52
2022-11-24T04:54:51.376Z,8.52
2022-11-24T04:55:52.901Z,8.54
2022-11-24T04:56:54.583Z,8.54
2022-11-24T04:57:56.127Z,8.43
2022-11-24T04:58:57.640Z,8.37
2022-11-24T04:59:59.329Z,8.26
2022-11-24T05:01:00.898Z,8.19
2022-11-24T05:02:02.420Z,8.18
2022-11-24T05:03:04.974Z,8.02
2022-11-24T05:04:06.564Z,7.89
2022-11-24T05:05:08.535Z,7.91
2022-11-24T05:06:10.080Z,7.88
2022-11-24T05:07:17.979Z,7.71
2022-11-24T05:08:20.456Z,7.60
2022-11-24T05:09:22.027Z,7.61
2022-11-24T05:10:35.566Z,7.65
2022-11-24T05:11:37.119Z,7.53
2022-11-24T05:12:39.600Z,7.42
2022-11-24T05:13:41.205Z,7.34
2022-11-24T05:14:42.745Z,7.26
2022-11-24T05:15:44.372Z,7.29
2022-11-24T05:16:46.042Z,7.25
2022-11-24T05:17:47.661Z,7.21
2022-11-24T05:18:49.178Z,7.19
2022-11-24T05:19:50.703Z,7.19
2022-11-24T05:20:52.301Z,7.15
2022-11-24T05:21:54.373Z,7.10
2022-11-24T05:22:56.000Z,7.01
2022-11-24T05:23:57.970Z,7.04
2022-11-24T05:24:59.530Z,7.11
2022-11-24T05:26:01.936Z,7.19
2022-11-24T05:27:03.591Z,7.21
2022-11-24T05:28:09.890Z,7.25
2022-11-24T05:29:11.429Z,7.29
2022-11-24T05:30:13.516Z,7.29
2022-11-24T05:31:15.064Z,7.37
2022-11-24T05:32:16.660Z,7.52
2022-11-24T05:33:23.038Z,7.69
2022-11-24T05:34:24.752Z,7.82
2022-11-24T05:35:26.382Z,7.82
2022-11-24T05:36:46.365Z,7.75
2022-11-24T05:37:48.196Z,7.64
2022-11-24T05:38:49.694Z,7.64
2022-11-24T05:39:51.305Z,7.75
2022-11-24T05:40:52.829Z,7.91
2022-11-24T05:41:54.369Z,8.00
2022-11-24T05:42:55.978Z,8.09
2022-11-24T05:43:57.514Z,8.15
2022-11-24T05:44:59.767Z,8.19
2022-11-24T05:46:02.010Z,8.23
2022-11-24T05:47:03.728Z,8.23
2022-11-24T05:48:07.725Z,8.23
2022-11-24T05:49:09.313Z,8.21
2022-11-24T05:50:13.451Z,8.21
2022-11-24T05:51:15.010Z,8.23
2022-11-24T05:52:17.198Z,8.30
2022-11-24T05:53:18.818Z,8.38
2022-11-24T05:54:20.613Z,8.46
2022-11-24T05:55:22.214Z,8.54
2022-11-24T05:56:23.813Z,8.60
2022-11-24T05:57:25.366Z,8.66
2022-11-24T05:58:27.050Z,8.72
2022-11-24T05:59:28.637Z,8.77
2022-11-24T06:00:32.647Z,8.82
2022-11-24T06:01:34.760Z,8.84
2022-11-24T06:02:36.448Z,8.88
2022-11-24T06:03:38.126Z,8.90
2022-11-24T06:04:39.700Z,8.97
2022-11-24T06:05:46.814Z,9.05
2022-11-24T06:06:48.335Z,9.06
2022-11-24T06:07:50.930Z,9.06
2022-11-24T06:08:52.526Z,9.05
2022-11-24T06:09:54.093Z,8.90
2022-11-24T06:11:17.097Z,8.63
2022-11-24T06:12:19.013Z,8.18
2022-11-24T06:13:20.707Z,7.99
2022-11-24T06:14:22.495Z,7.99
2022-11-24T06:15:24.129Z,8.08
2022-11-24T06:16:26.158Z,8.07
2022-11-24T06:17:27.957Z,8.22
2022-11-24T06:18:29.710Z,8.31
2022-11-24T06:19:31.512Z,8.32
2022-11-24T06:20:33.278Z,8.41
2022-11-24T06:21:34.860Z,8.52
2022-11-24T06:22:37.119Z,8.65
2022-11-24T06:23:39.233Z,8.80
2022-11-24T06:24:40.823Z,8.96
2022-11-24T06:25:43.614Z,9.09
2022-11-24T06:26:47.831Z,9.16
2022-11-24T06:27:49.343Z,9.27
2022-11-24T06:28:50.871Z,9.26
2022-11-24T06:29:52.760Z,9.28
2022-11-24T06:30:54.497Z,9.34
2022-11-24T06:31:56.312Z,9.47
2022-11-24T06:32:57.930Z,9.48
2022-11-24T06:33:59.842Z,9.41
2022-11-24T06:35:01.555Z,9.19
2022-11-24T06:36:08.415Z,8.86
2022-11-24T06:37:10.272Z,8.69
2022-11-24T06:38:11.789Z,8.80
2022-11-24T06:39:13.329Z,8.89
2022-11-24T06:40:14.947Z,8.89
2022-11-24T06:41:18.118Z,8.90
2022-11-24T06:42:21.524Z,8.82
2022-11-24T06:43:23.357Z,8.76
2022-11-24T06:44:25.166Z,8.59
2022-11-24T06:45:26.802Z,8.45
2022-11-24T06:46:28.396Z,8.30
2022-11-24T06:47:29.980Z,8.28
2022-11-24T06:48:32.092Z,8.35
2022-11-24T06:49:33.643Z,8.27
2022-11-24T06:50:35.715Z,8.16
2022-11-24T06:51:37.450Z,8.21
2022-11-24T06:52:39.015Z,8.29
2022-11-24T06:53:41.245Z,8.43
2022-11-24T06:54:43.563Z,8.53
2022-11-24T06:55:46.872Z,8.63
2022-11-24T06:56:48.604Z,8.66
2022-11-24T06:57:50.140Z,8.54
2022-11-24T06:58:53.259Z,8.35
2022-11-24T06:59:54.838Z,8.38
2022-11-24T07:00:56.758Z,8.53
2022-11-24T07:01:58.996Z,8.58
2022-11-24T07:03:01.011Z,8.58
2022-11-24T07:04:02.700Z,8.57
2022-11-24T07:05:04.479Z,8.60
2022-11-24T07:06:06.173Z,8.53
2022-11-24T07:07:07.851Z,8.47
2022-11-24T07:08:14.600Z,8.33
2022-11-24T07:09:19.062Z,8.27
2022-11-24T07:10:21.079Z,8.33
2022-11-24T07:11:23.693Z,8.49
2022-11-24T07:12:25.215Z,8.55
2022-11-24T07:13:26.715Z,8.63
2022-11-24T07:14:28.228Z,8.68
2022-11-24T07:15:30.429Z,8.80
2022-11-24T07:16:32.285Z,8.92
2022-11-24T07:17:38.080Z,9.08
2022-11-24T07:18:39.703Z,9.21
2022-11-24T07:19:41.281Z,9.30
2022-11-24T07:20:43.333Z,9.34
2022-11-24T07:21:44.946Z,9.47
2022-11-24T07:22:46.559Z,9.53
2022-11-24T07:23:52.178Z,9.67
2022-11-24T07:24:53.668Z,9.79
2022-11-24T07:25:55.230Z,9.90
2022-11-24T07:26:56.770Z,10.00
2022-11-24T07:27:59.976Z,10.10
2022-11-24T07:29:01.496Z,10.17
2022-11-24T07:30:03.510Z,10.24
2022-11-24T07:31:10.303Z,10.34
2022-11-24T07:32:11.928Z,10.35
2022-11-24T07:33:13.531Z,10.27
2022-11-24T07:34:15.075Z,10.18
2022-11-24T07:35:16.592Z,10.15
2022-11-24T07:36:18.529Z,10.01
2022-11-24T07:37:20.085Z,9.78
2022-11-24T07:38:21.680Z,9.70
2022-11-24T07:39:23.244Z,9.71
2022-11-24T07:40:26.955Z,9.84
2022-11-24T07:41:28.655Z,9.96
2022-11-24T07:42:30.248Z,10.07
2022-11-24T07:43:33.243Z,10.11
2022-11-24T07:44:34.959Z,10.20
2022-11-24T07:45:36.757Z,10.24
2022-11-24T07:46:38.336Z,10.32
2022-11-24T07:47:40.679Z,10.42
2022-11-24T07:48:42.267Z,10.50
2022-11-24T07:49:43.818Z,10.60
2022-11-24T07:50:45.492Z,10.69
2022-11-24T07:51:47.085Z,10.80
2022-11-24T07:52:48.694Z,10.87
2022-11-24T07:53:50.524Z,10.96
2022-11-24T07:54:52.417Z,10.87
2022-11-24T07:55:55.696Z,10.94
2022-11-24T07:56:57.348Z,11.05
2022-11-24T07:58:00.659Z,11.15
2022-11-24T07:59:02.651Z,11.17
2022-11-24T08:00:05.916Z,11.29
2022-11-24T08:01:16.607Z,11.36
2022-11-24T08:02:18.426Z,11.53
2022-11-24T08:03:20.429Z,11.57
2022-11-24T08:04:22.166Z,11.75
2022-11-24T08:05:23.691Z,11.91
2022-11-24T08:06:29.051Z,12.04
2022-11-24T08:07:37.670Z,11.96
2022-11-24T08:08:39.299Z,12.02
2022-11-24T08:09:41.103Z,12.11
2022-11-24T08:10:42.654Z,12.13
2022-11-24T08:11:44.528Z,12.28
2022-11-24T08:12:46.090Z,12.48
2022-11-24T08:13:47.714Z,12.66
2022-11-24T08:14:50.495Z,12.76
2022-11-24T08:15:52.023Z,12.82
2022-11-24T08:16:53.611Z,12.91
2022-11-24T08:17:55.407Z,12.97
2022-11-24T08:18:57.009Z,13.06
2022-11-24T08:19:58.627Z,13.27
2022-11-24T08:21:00.241Z,13.44
2022-11-24T08:22:01.761Z,13.46
2022-11-24T08:23:03.512Z,13.55
2022-11-24T08:24:05.611Z,13.67
2022-11-24T08:25:07.774Z,13.84
2022-11-24T08:26:15.966Z,13.91
2022-11-24T08:27:18.883Z,13.89
2022-11-24T08:28:21.372Z,13.81
2022-11-24T08:29:22.953Z,13.74
2022-11-24T08:30:24.718Z,13.67
2022-11-24T08:31:33.428Z,13.76
2022-11-24T08:32:35.406Z,13.64
2022-11-24T08:33:37.294Z,13.54
2022-11-24T08:34:39.221Z,13.59
2022-11-24T08:35:40.781Z,13.77
2022-11-24T08:36:42.304Z,13.93
2022-11-24T08:37:44.078Z,13.75
2022-11-24T08:38:46.349Z,13.41
2022-11-24T08:39:47.974Z,13.04
2022-11-24T08:40:49.492Z,12.99
2022-11-24T08:41:51.131Z,12.92
2022-11-24T08:42:56.853Z,12.88
2022-11-24T08:43:58.558Z,12.95
2022-11-24T08:45:04.942Z,13.08
2022-11-24T08:46:20.195Z,13.14
2022-11-24T08:47:21.817Z,13.06
2022-11-24T08:48:23.412Z,13.00
2022-11-24T08:49:25.010Z,12.70
2022-11-24T08:50:26.654Z,12.45
2022-11-24T08:51:28.818Z,12.42
2022-11-24T08:52:30.591Z,12.29
2022-11-24T08:53:32.097Z,12.26
2022-11-24T08:54:33.980Z,12.32
2022-11-24T08:55:35.686Z,12.27
2022-11-24T08:56:37.385Z,12.28
2022-11-24T08:57:38.984Z,12.41
2022-11-24T08:58:41.250Z,12.48
2022-11-24T08:59:42.826Z,12.43
2022-11-24T09:00:44.373Z,12.44
2022-11-24T09:01:45.995Z,12.36
2022-11-24T09:02:53.990Z,12.33
2022-11-24T09:03:55.801Z,12.08
2022-11-24T09:04:57.432Z,12.06
2022-11-24T09:05:59.019Z,12.10
2022-11-24T09:07:00.753Z,12.10
2022-11-24T09:08:02.415Z,12.20
2022-11-24T09:09:04.131Z,12.35
2022-11-24T09:10:06.331Z,12.47
2022-11-24T09:11:10.709Z,12.51
2022-11-24T09:12:14.618Z,12.61
2022-11-24T09:13:16.501Z,12.71
2022-11-24T09:14:18.050Z,12.76
2022-11-24T09:15:20.376Z,12.84
2022-11-24T09:16:26.049Z,12.86
2022-11-24T09:17:27.683Z,12.86
2022-11-24T09:18:30.553Z,12.92
2022-11-24T09:19:32.645Z,13.02
2022-11-24T09:20:34.394Z,13.05
2022-11-24T09:21:39.253Z,13.17
2022-11-24T09:22:41.743Z,13.18
2022-11-24T09:23:44.026Z,13.23
2022-11-24T09:24:45.507Z,13.22
2022-11-24T09:25:47.053Z,13.22
2022-11-24T09:26:48.582Z,13.23
2022-11-24T09:27:51.156Z,13.29
2022-11-24T09:28:54.706Z,13.31
2022-11-24T09:29:56.318Z,13.32
2022-11-24T09:31:01.381Z,13.30
2022-11-24T09:32:06.727Z,13.32
2022-11-24T09:33:08.799Z,13.33
2022-11-24T09:34:14.823Z,13.32
2022-11-24T09:35:16.453Z,13.33
2022-11-24T09:36:18.644Z,13.39
2022-11-24T09:37:20.230Z,13.35
2022-11-24T09:38:22.872Z,13.39
2022-11-24T09:39:25.634Z,13.42
2022-11-24T09:40:27.215Z,13.42
2022-11-24T09:41:49.394Z,13.45
2022-11-24T09:42:53.924Z,13.46
2022-11-24T09:44:08.668Z,13.37
2022-11-24T09:45:57.057Z,13.40
2022-11-24T09:47:06.413Z,13.18
2022-11-24T09:48:30.958Z,13.36
2022-11-24T09:50:05.281Z,13.40
2022-11-24T09:51:11.644Z,13.41
2022-11-24T09:52:18.560Z,13.41
2022-11-24T09:53:39.345Z,13.40
2022-11-24T09:54:54.663Z,13.43
2022-11-24T09:56:00.542Z,13.45
2022-11-24T09:57:07.244Z,13.47
2022-11-24T09:58:24.344Z,13.47
2022-11-24T09:59:27.500Z,13.47
2022-11-24T10:00:30.182Z,13.41
2022-11-24T10:01:41.577Z,13.46
2022-11-24T10:02:46.116Z,13.55
2022-11-24T10:03:51.004Z,13.64
2022-11-24T10:04:54.809Z,13.69
2022-11-24T10:05:56.428Z,13.73
2022-11-24T10:07:16.692Z,13.72
2022-11-24T10:08:54.182Z,13.71
2022-11-24T10:10:07.906Z,13.73
2022-11-24T10:11:14.809Z,13.76
2022-11-24T10:12:34.393Z,13.68
2022-11-24T10:13:54.583Z,13.68
2022-11-24T10:15:14.899Z,13.60
2022-11-24T10:16:41.304Z,13.55
2022-11-24T10:17:49.712Z,13.50
2022-11-24T10:19:03.380Z,13.41
2022-11-24T10:20:33.575Z,13.48
2022-11-24T10:21:52.848Z,13.56
2022-11-24T10:23:19.737Z,13.59
2022-11-24T10:24:51.802Z,13.59
2022-11-24T10:25:58.181Z,13.58
2022-11-24T10:27:11.535Z,13.54
2022-11-24T10:28:15.083Z,13.55
2022-11-24T10:29:38.203Z,13.63
2022-11-24T10:30:40.236Z,13.74
2022-11-24T10:31:44.642Z,13.75
2022-11-24T10:32:49.279Z,13.62
2022-11-24T10:33:51.274Z,13.55
2022-11-24T10:34:55.881Z,13.54
2022-11-24T10:36:13.485Z,13.45
2022-11-24T10:37:23.750Z,13.33
2022-11-24T10:38:51.515Z,13.18
2022-11-24T10:40:17.181Z,13.08
2022-11-24T10:42:07.101Z,12.91
2022-11-24T10:43:11.292Z,12.90
2022-11-24T10:44:14.309Z,12.95
2022-11-24T10:45:19.423Z,12.87
2022-11-24T10:46:27.971Z,12.83
2022-11-24T10:47:30.737Z,12.74
2022-11-24T10:48:41.081Z,12.61
2022-11-24T10:49:57.919Z,12.57
2022-11-24T10:51:17.687Z,12.57
2022-11-24T10:52:20.012Z,12.60
2022-11-24T10:53:30.246Z,12.60
2022-11-24T10:54:33.123Z,12.58
2022-11-24T10:55:56.246Z,12.62
2022-11-24T10:56:57.944Z,12.59
2022-11-24T10:58:15.433Z,12.58
2022-11-24T10:59:37.554Z,12.63
2022-11-24T11:00:39.599Z,12.55
2022-11-24T11:01:41.187Z,12.41
2022-11-24T11:02:42.834Z,12.31
2022-11-24T11:03:49.982Z,12.18
2022-11-24T11:04:51.725Z,12.11
2022-11-24T11:06:13.135Z,12.07
2022-11-24T11:07:18.671Z,12.03
2022-11-24T11:08:22.588Z,11.96
2022-11-24T11:09:24.270Z,11.99
2022-11-24T11:10:25.789Z,11.92
2022-11-24T11:11:29.189Z,11.94
2022-11-24T11:12:46.156Z,11.90
2022-11-24T11:13:52.249Z,11.80
2022-11-24T11:14:54.051Z,11.75
2022-11-24T11:15:57.264Z,11.75
2022-11-24T11:16:59.586Z,11.70
2022-11-24T11:18:01.688Z,11.70
2022-11-24T11:19:20.202Z,11.69
2022-11-24T11:20:34.152Z,11.60
2022-11-24T11:21:37.956Z,11.59
2022-11-24T11:22:45.285Z,11.53
2022-11-24T11:23:51.748Z,11.54
2022-11-24T11:25:10.112Z,11.65
2022-11-24T11:26:22.551Z,11.60
2022-11-24T11:27:25.290Z,11.60
2022-11-24T11:28:29.155Z,11.52
2022-11-24T11:31:18.018Z,11.24
2022-11-24T11:34:16.682Z,11.14
2022-11-24T11:35:17.020Z,11.11
2022-11-24T11:36:18.588Z,11.15
2022-11-24T11:37:21.704Z,11.13
2022-11-24T11:38:26.358Z,10.99
2022-11-24T11:39:36.939Z,10.99
2022-11-24T11:40:42.768Z,10.97
2022-11-24T11:41:49.558Z,11.00
2022-11-24T11:43:02.860Z,10.92
2022-11-24T11:44:17.649Z,10.88
2022-11-24T11:45:32.113Z,10.91
2022-11-24T11:46:33.898Z,10.91
2022-11-24T11:47:44.315Z,10.87
2022-11-24T11:48:47.458Z,10.91
2022-11-24T11:49:49.660Z,10.90
2022-11-24T11:51:22.230Z,10.90
2022-11-24T11:52:51.160Z,10.91
2022-11-24T11:53:55.785Z,10.96
2022-11-24T11:55:46.599Z,11.00
2022-11-24T11:57:06.470Z,10.98
2022-11-24T11:58:18.547Z,10.95
2022-11-24T12:00:01.974Z,10.92
2022-11-24T12:01:24.365Z,10.87
2022-11-24T12:02:53.685Z,10.78
2022-11-24T12:04:16.353Z,10.75
2022-11-24T12:05:38.857Z,10.75
2022-11-24T12:06:49.428Z,10.77
2022-11-24T12:08:22.649Z,10.77
2022-11-24T12:09:53.448Z,10.66
2022-11-24T12:11:28.965Z,10.62
2022-11-24T12:12:42.389Z,10.64
2022-11-24T12:14:02.657Z,10.65
2022-11-24T12:15:22.055Z,10.58
2022-11-24T12:16:48.062Z,10.52
2022-11-24T12:17:52.900Z,10.52
2022-11-24T12:19:02.938Z,10.54
2022-11-24T12:20:42.217Z,10.53
2022-11-24T12:21:48.290Z,10.62
2022-11-24T12:23:17.705Z,10.56
2022-11-24T12:24:40.515Z,10.44
2022-11-24T12:25:47.915Z,10.29
2022-11-24T12:26:57.209Z,10.21
2022-11-24T12:28:37.958Z,10.12
2022-11-24T12:29:42.044Z,10.00
2022-11-24T12:31:12.411Z,9.93
2022-11-24T12:32:55.515Z,9.89
2022-11-24T12:34:31.068Z,9.88
2022-11-24T12:35:39.207Z,9.83
2022-11-24T12:36:49.441Z,9.77
2022-11-24T12:38:08.828Z,9.72
2022-11-24T12:39:28.803Z,9.61
2022-11-24T12:41:06.468Z,9.59
2022-11-24T12:42:53.617Z,9.53
2022-11-24T12:43:58.292Z,9.53
2022-11-24T12:45:13.241Z,9.55
2022-11-24T12:46:56.727Z,9.53
2022-11-24T12:48:35.712Z,9.51
2022-11-24T12:49:56.310Z,9.43
2022-11-24T12:50:59.144Z,9.40
2022-11-24T12:52:09.016Z,9.40
2022-11-24T12:53:24.358Z,9.32
2022-11-24T12:54:30.091Z,9.28
2022-11-24T12:55:34.053Z,9.25
2022-11-24T12:56:57.975Z,9.21
2022-11-24T12:58:11.086Z,9.15
2022-11-24T12:59:21.030Z,9.11
2022-11-24T13:00:29.526Z,9.11
2022-11-24T13:01:35.892Z,9.08
2022-11-24T13:03:00.622Z,9.02
2022-11-24T13:04:11.052Z,9.04
2022-11-24T13:05:30.270Z,9.02
2022-11-24T13:06:49.341Z,9.02
2022-11-24T13:08:01.109Z,9.04
2022-11-24T13:09:10.734Z,9.09
2022-11-24T13:10:46.488Z,9.12
2022-11-24T13:11:48.978Z,9.16
2022-11-24T13:12:57.555Z,9.17
2022-11-24T13:14:00.438Z,9.25
2022-11-24T13:15:43.314Z,9.27
2022-11-24T13:17:13.378Z,9.29
2022-11-24T13:18:46.961Z,9.34
2022-11-24T13:19:49.718Z,9.31
2022-11-24T13:20:51.630Z,9.28
2022-11-24T13:22:01.930Z,9.31
2022-11-24T13:23:08.493Z,9.43
2022-11-24T13:24:19.332Z,9.57
2022-11-24T13:25:28.748Z,9.49
2022-11-24T13:26:52.282Z,9.51
2022-11-24T13:27:57.613Z,9.63
2022-11-24T13:29:09.350Z,9.74
2022-11-24T13:30:34.966Z,9.78
2022-11-24T13:31:36.611Z,9.67
2022-11-24T13:32:38.180Z,9.65
2022-11-24T13:33:40.207Z,9.61
2022-11-24T13:34:45.919Z,9.57
2022-11-24T13:36:03.170Z,9.53
2022-11-24T13:37:26.716Z,9.53
2022-11-24T13:38:45.348Z,9.49
2022-11-24T13:39:58.353Z,9.39
2022-11-24T13:41:27.031Z,9.37
2022-11-24T13:42:42.157Z,9.33
2022-11-24T13:44:13.498Z,9.25
2022-11-24T13:45:37.127Z,9.28
2022-11-24T13:47:05.688Z,9.24
2022-11-24T13:48:20.334Z,9.16
2022-11-24T13:49:22.272Z,9.15
2022-11-24T13:50:45.387Z,9.13
2022-11-24T13:51:46.918Z,9.15
2022-11-24T13:52:58.002Z,9.12
2022-11-24T13:54:00.960Z,9.19
2022-11-24T13:55:21.497Z,9.15
2022-11-24T13:56:26.472Z,9.13
2022-11-24T13:57:57.369Z,9.10
2022-11-24T13:59:03.118Z,9.08
2022-11-24T14:00:18.308Z,9.10
2022-11-24T14:01:24.262Z,9.10
2022-11-24T14:02:26.651Z,9.03
2022-11-24T14:03:33.904Z,9.02
2022-11-24T14:04:39.466Z,9.02
2022-11-24T14:05:49.009Z,8.99
2022-11-24T14:06:53.328Z,9.02
2022-11-24T14:07:55.060Z,9.02
2022-11-24T14:08:59.660Z,8.99
2022-11-24T14:10:02.047Z,9.01
2022-11-24T14:11:13.310Z,9.05
2022-11-24T14:12:19.044Z,8.99
2022-11-24T14:13:26.163Z,9.02
2022-11-24T14:14:27.967Z,9.02
2022-11-24T14:15:34.195Z,8.95
2022-11-24T14:16:35.831Z,8.91
2022-11-24T14:17:37.747Z,8.90
2022-11-24T14:18:41.728Z,8.90
2022-11-24T14:19:46.002Z,8.87
2022-11-24T14:20:47.644Z,8.88
2022-11-24T14:21:49.616Z,8.86
2022-11-24T14:22:51.965Z,8.87
2022-11-24T14:23:59.818Z,8.89
2022-11-24T14:25:02.770Z,8.89